createdAt,value
2023-05-04T00:02:30.705Z,22.83
2023-05-04T00:07:32.175Z,23.10
2023-05-04T00:12:33.660Z,22.25
2023-05-04T00:17:35.210Z,20.10
2023-05-04T00:22:36.649Z,23.45
2023-05-04T00:27:38.112Z,23.83
2023-05-04T00:32:39.600Z,19.98
2023-05-04T00:37:41.176Z,25.48
2023-05-04T00:42:42.585Z,24.70
2023-05-04T00:47:44.405Z,21.40
2023-05-04T00:52:48.637Z,26.42
2023-05-04T00:57:50.799Z,22.65
2023-05-04T01:02:52.353Z,21.17
2023-05-04T01:08:31.720Z,24.05
2023-05-04T01:13:35.229Z,23.00
2023-05-04T01:18:36.645Z,24.80
2023-05-04T01:23:38.167Z,24.58
2023-05-04T01:28:49.199Z,21.85
2023-05-04T01:33:52.888Z,22.08
2023-05-04T01:38:55.436Z,20.20
2023-05-04T01:43:57.567Z,19.80
2023-05-04T01:48:59.055Z,22.77
2023-05-04T01:54:00.765Z,23.25
2023-05-04T01:59:02.162Z,21.13
2023-05-04T02:04:03.814Z,22.25
2023-05-04T02:09:05.662Z,19.08
2023-05-04T02:14:07.078Z,22.45
2023-05-04T02:19:08.630Z,20.60
2023-05-04T02:24:10.118Z,22.30
2023-05-04T02:29:11.765Z,20.60
2023-05-04T02:34:13.248Z,19.67
2023-05-04T02:39:14.878Z,21.85
2023-05-04T02:44:16.285Z,20.00
2023-05-04T02:49:17.753Z,20.40
2023-05-04T02:54:19.224Z,20.60
2023-05-04T02:59:20.773Z,20.15
2023-05-04T03:04:22.267Z,20.27
2023-05-04T03:09:23.760Z,17.52
2023-05-04T03:14:25.199Z,19.27
2023-05-04T03:19:26.788Z,18.10
2023-05-04T03:24:28.223Z,20.45
2023-05-04T03:29:29.662Z,19.73
2023-05-04T03:34:31.486Z,18.75
2023-05-04T03:39:32.898Z,21.85
2023-05-04T03:44:34.300Z,19.85
2023-05-04T03:49:35.786Z,23.42
2023-05-04T03:54:37.293Z,17.63
2023-05-04T03:59:38.766Z,18.55
2023-05-04T04:04:40.277Z,22.13
2023-05-04T04:09:41.697Z,18.98
2023-05-04T04:14:43.107Z,16.58
2023-05-04T04:19:44.830Z,19.40
2023-05-04T04:24:46.262Z,20.52
2023-05-04T04:29:47.721Z,22.42
2023-05-04T04:34:49.131Z,23.23
2023-05-04T04:39:50.672Z,22.15
2023-05-04T04:44:52.387Z,22.63
2023-05-04T04:49:53.984Z,23.23
2023-05-04T04:54:55.405Z,26.10
2023-05-04T04:59:57.374Z,29.35
2023-05-04T05:04:58.940Z,25.05
2023-05-04T05:10:00.698Z,20.30
2023-05-04T05:15:04.338Z,21.92
2023-05-04T05:20:12.512Z,17.75
2023-05-04T05:25:14.471Z,24.20
2023-05-04T05:30:16.158Z,17.63
2023-05-04T05:35:17.620Z,16.98
2023-05-04T05:40:19.278Z,18.23
2023-05-04T05:45:20.696Z,17.77
2023-05-04T05:50:23.515Z,21.23
2023-05-04T05:55:24.989Z,19.45
2023-05-04T06:00:26.453Z,15.88
2023-05-04T06:05:27.882Z,21.27
2023-05-04T06:10:29.369Z,14.73
2023-05-04T06:15:30.923Z,15.35
2023-05-04T06:20:32.493Z,18.83
2023-05-04T06:25:33.918Z,13.25
2023-05-04T06:30:36.570Z,14.55
2023-05-04T06:35:38.023Z,14.98
2023-05-04T06:40:39.502Z,13.77
2023-05-04T06:45:41.100Z,16.73
2023-05-04T06:50:42.697Z,13.50
2023-05-04T06:55:44.184Z,16.23
2023-05-04T07:00:46.088Z,14.43
2023-05-04T07:05:48.892Z,13.07
2023-05-04T07:10:50.310Z,12.88
2023-05-04T07:15:51.843Z,17.23
2023-05-04T07:21:01.561Z,11.35
2023-05-04T07:26:08.378Z,11.80
2023-05-04T07:31:12.819Z,10.13
2023-05-04T07:36:14.306Z,10.45
2023-05-04T07:41:15.749Z,8.85
2023-05-04T07:46:17.250Z,7.32
2023-05-04T07:51:18.708Z,9.93
2023-05-04T07:56:20.168Z,10.18
2023-05-04T08:01:21.729Z,7.90
2023-05-04T08:06:23.257Z,5.72
2023-05-04T08:11:24.677Z,5.35
2023-05-04T08:16:26.381Z,8.90
2023-05-04T08:21:28.306Z,5.40
2023-05-04T08:26:31.042Z,4.80
2023-05-04T08:31:32.641Z,4.60
2023-05-04T08:36:34.978Z,4.97
2023-05-04T08:41:40.962Z,4.82
2023-05-04T08:46:43.335Z,4.93
2023-05-04T08:51:46.279Z,6.32
2023-05-04T08:56:50.125Z,7.35
2023-05-04T09:01:58.647Z,6.90
2023-05-04T09:07:00.175Z,7.03
2023-05-04T09:12:01.608Z,5.35
2023-05-04T09:17:12.329Z,5.22
2023-05-04T09:22:15.501Z,5.72
2023-05-04T09:27:19.915Z,6.10
2023-05-04T09:32:21.425Z,5.82
2023-05-04T09:37:22.973Z,7.57
2023-05-04T09:42:25.567Z,7.60
2023-05-04T09:47:38.390Z,7.30
2023-05-04T09:52:41.621Z,7.05
2023-05-04T09:57:44.777Z,7.07
2023-05-04T10:02:47.707Z,7.28
2023-05-04T10:07:49.973Z,6.32
2023-05-04T10:12:51.550Z,7.00
2023-05-04T10:18:21.139Z,5.95
2023-05-04T10:23:41.512Z,6.10
2023-05-04T10:29:13.106Z,4.15
2023-05-04T10:34:25.060Z,4.25
2023-05-04T10:39:31.061Z,3.55
2023-05-04T10:44:37.596Z,4.43
2023-05-04T10:49:39.135Z,7.10
2023-05-04T10:54:41.752Z,3.92
2023-05-04T10:59:56.452Z,4.05
2023-05-04T11:05:01.346Z,4.25
2023-05-04T11:10:04.446Z,6.43
2023-05-04T11:15:07.904Z,4.72
2023-05-04T11:20:10.606Z,3.92
2023-05-04T11:25:12.152Z,5.35
2023-05-04T11:30:13.999Z,5.22
2023-05-04T11:35:18.612Z,5.22
2023-05-04T11:40:23.709Z,5.25
2023-05-04T11:45:29.823Z,5.00
2023-05-04T11:50:31.783Z,5.78
2023-05-04T11:55:33.460Z,5.97
2023-05-04T12:00:49.636Z,4.43
2023-05-04T12:05:53.797Z,6.07
2023-05-04T12:11:56.512Z,5.82
2023-05-04T12:17:01.734Z,5.07
2023-05-04T12:22:05.083Z,5.68
2023-05-04T12:27:12.868Z,3.78
2023-05-04T12:32:14.533Z,3.00
2023-05-04T12:37:16.156Z,6.32
2023-05-04T12:42:17.598Z,5.22
2023-05-04T12:47:20.919Z,5.22
2023-05-04T12:52:22.886Z,5.05
2023-05-04T12:57:24.411Z,3.90
2023-05-04T13:02:25.878Z,5.85
2023-05-04T13:07:27.397Z,7.00
2023-05-04T13:12:28.853Z,4.78
2023-05-04T13:17:33.747Z,6.00
2023-05-04T13:22:36.420Z,6.68
2023-05-04T13:27:38.125Z,5.78
2023-05-04T13:32:39.962Z,3.25
2023-05-04T13:37:42.242Z,3.70
2023-05-04T13:42:43.712Z,3.38
2023-05-04T13:47:45.436Z,4.38
2023-05-04T13:52:46.900Z,3.58
2023-05-04T13:57:48.788Z,4.72
2023-05-04T14:02:50.581Z,5.30
2023-05-04T14:07:52.855Z,4.20
2023-05-04T14:12:54.325Z,5.32
2023-05-04T14:17:55.837Z,4.25
2023-05-04T14:22:57.287Z,4.18
2023-05-04T14:27:58.719Z,4.63
2023-05-04T14:33:00.311Z,5.38
2023-05-04T14:38:01.805Z,5.03
2023-05-04T14:43:03.463Z,4.57
2023-05-04T14:48:05.434Z,8.10
2023-05-04T14:53:08.264Z,4.53
2023-05-04T14:58:09.967Z,3.65
2023-05-04T15:03:11.632Z,6.43
2023-05-04T15:08:13.165Z,3.97
2023-05-04T15:13:15.895Z,3.45
2023-05-04T15:18:17.639Z,3.60
2023-05-04T15:23:19.083Z,3.80
2023-05-04T15:28:22.836Z,5.35
2023-05-04T15:33:24.328Z,3.20
2023-05-04T15:38:28.549Z,3.25
2023-05-04T15:43:30.025Z,2.97
2023-05-04T15:48:31.429Z,3.92
2023-05-04T15:53:33.202Z,5.07
2023-05-04T15:58:34.641Z,4.97
2023-05-04T16:03:36.182Z,3.75
2023-05-04T16:08:37.700Z,3.63
2023-05-04T16:13:39.173Z,4.07
2023-05-04T16:18:40.697Z,4.00
2023-05-04T16:23:42.275Z,2.83
2023-05-04T16:28:45.206Z,3.78
2023-05-04T16:33:47.863Z,3.22
2023-05-04T16:38:49.384Z,4.82
2023-05-04T16:43:51.682Z,4.82
2023-05-04T16:48:54.472Z,6.88
2023-05-04T16:53:55.982Z,3.80
2023-05-04T16:58:57.499Z,4.03
2023-05-04T17:03:59.243Z,5.30
2023-05-04T17:09:01.000Z,3.80
2023-05-04T17:14:03.561Z,6.05
2023-05-04T17:19:05.003Z,5.25
2023-05-04T17:24:06.479Z,6.30
2023-05-04T17:29:08.073Z,5.63
2023-05-04T17:34:09.554Z,5.13
2023-05-04T17:39:11.208Z,3.95
2023-05-04T17:44:12.633Z,7.55
2023-05-04T17:49:14.113Z,5.13
2023-05-04T17:54:16.283Z,5.03
2023-05-04T17:59:17.819Z,4.47
2023-05-04T18:04:19.250Z,8.50
2023-05-04T18:09:20.729Z,4.80
2023-05-04T18:14:22.174Z,4.95
2023-05-04T18:19:27.794Z,5.25
2023-05-04T18:24:30.000Z,5.65
2023-05-04T18:29:32.405Z,5.68
2023-05-04T18:34:34.314Z,5.38
2023-05-04T18:39:37.973Z,7.32
2023-05-04T18:44:39.546Z,7.35
2023-05-04T18:49:41.304Z,5.45
2023-05-04T18:54:42.731Z,5.80
2023-05-04T18:59:44.151Z,4.65
2023-05-04T19:04:47.163Z,5.90
2023-05-04T19:09:48.752Z,10.80
2023-05-04T19:14:51.153Z,11.02
2023-05-04T19:19:52.693Z,9.45
2023-05-04T19:24:55.466Z,9.07
2023-05-04T19:29:56.911Z,6.88
2023-05-04T19:34:58.412Z,7.93
2023-05-04T19:39:59.864Z,7.20
2023-05-04T19:45:01.289Z,6.30
2023-05-04T19:50:03.002Z,7.93
2023-05-04T19:55:06.163Z,8.90
2023-05-04T20:00:10.020Z,7.32
2023-05-04T20:05:12.257Z,14.40
2023-05-04T20:10:13.740Z,14.57
2023-05-04T20:15:15.780Z,17.38
2023-05-04T20:20:20.270Z,11.85
2023-05-04T20:25:22.832Z,13.02
2023-05-04T20:30:28.016Z,12.13
2023-05-04T20:35:29.441Z,9.82
2023-05-04T20:40:30.869Z,10.10
2023-05-04T20:45:32.644Z,12.30
2023-05-04T20:50:34.204Z,12.18
2023-05-04T20:55:36.036Z,10.10
2023-05-04T21:00:37.465Z,10.85
2023-05-04T21:05:39.682Z,11.48
2023-05-04T21:10:41.335Z,14.57
2023-05-04T21:15:42.850Z,16.38
2023-05-04T21:20:44.305Z,15.40
2023-05-04T21:25:45.734Z,12.93
2023-05-04T21:30:47.140Z,14.20
2023-05-04T21:35:48.787Z,14.40
2023-05-04T21:40:50.598Z,17.58
2023-05-04T21:45:52.024Z,15.55
2023-05-04T21:50:53.452Z,15.00
2023-05-04T21:55:54.863Z,14.85
2023-05-04T22:00:56.458Z,12.82
2023-05-04T22:05:58.083Z,13.85
2023-05-04T22:10:59.613Z,14.13
2023-05-04T22:16:01.072Z,12.63
2023-05-04T22:21:02.497Z,13.07
2023-05-04T22:26:04.077Z,12.55
2023-05-04T22:31:05.623Z,15.43
2023-05-04T22:36:07.489Z,16.75
2023-05-04T22:41:08.949Z,19.70
2023-05-04T22:46:19.235Z,18.85
2023-05-04T22:51:20.756Z,18.55
2023-05-04T22:56:22.256Z,19.52
2023-05-04T23:01:23.814Z,19.70
2023-05-04T23:06:25.290Z,23.45
2023-05-04T23:11:26.744Z,19.88
2023-05-04T23:16:28.271Z,19.42
2023-05-04T23:21:29.926Z,19.70
2023-05-04T23:26:31.598Z,17.40
2023-05-04T23:31:33.098Z,18.83
2023-05-04T23:36:34.538Z,18.25
2023-05-04T23:41:35.956Z,18.60
2023-05-04T23:46:37.429Z,19.90
2023-05-04T23:51:38.844Z,20.40
2023-05-04T23:56:40.325Z,22.17
